createdAt,value
2022-08-20T00:02:09.010Z,17.68
2022-08-20T00:04:35.663Z,17.75
2022-08-20T00:07:03.233Z,17.82
2022-08-20T00:09:31.093Z,17.82
2022-08-20T00:12:05.116Z,17.86
2022-08-20T00:14:31.703Z,17.83
2022-08-20T00:17:01.189Z,17.85
2022-08-20T00:19:28.364Z,17.90
2022-08-20T00:21:57.554Z,17.81
2022-08-20T00:24:25.397Z,17.84
2022-08-20T00:26:52.783Z,17.93
2022-08-20T00:29:20.238Z,17.91
2022-08-20T00:31:47.092Z,17.93
2022-08-20T00:34:13.612Z,17.99
2022-08-20T00:36:40.085Z,17.96
2022-08-20T00:39:06.483Z,17.94
2022-08-20T00:41:32.949Z,17.80
2022-08-20T00:44:11.345Z,17.90
2022-08-20T00:46:39.926Z,17.83
2022-08-20T00:49:17.734Z,17.91
2022-08-20T00:51:47.974Z,17.86
2022-08-20T00:54:25.575Z,17.89
2022-08-20T00:57:03.500Z,17.84
2022-08-20T00:59:34.784Z,17.88
2022-08-20T01:02:02.434Z,17.86
2022-08-20T01:04:33.659Z,17.91
2022-08-20T01:07:01.025Z,17.89
2022-08-20T01:09:50.094Z,17.87
2022-08-20T01:12:16.125Z,17.86
2022-08-20T01:14:46.189Z,17.76
2022-08-20T01:17:17.863Z,17.66
2022-08-20T01:20:10.732Z,17.57
2022-08-20T01:23:10.497Z,17.28
2022-08-20T01:25:57.725Z,17.37
2022-08-20T01:28:36.798Z,17.38
2022-08-20T01:31:06.190Z,17.17
2022-08-20T01:33:32.932Z,17.17
2022-08-20T01:36:00.595Z,17.12
2022-08-20T01:38:29.531Z,17.00
2022-08-20T01:41:27.237Z,17.11
2022-08-20T01:44:01.197Z,16.96
2022-08-20T01:46:33.197Z,16.90
2022-08-20T01:49:13.794Z,16.77
2022-08-20T01:51:49.025Z,16.85
2022-08-20T01:54:15.753Z,16.76
2022-08-20T01:56:59.371Z,16.81
2022-08-20T01:59:26.002Z,16.94
2022-08-20T02:01:55.521Z,16.85
2022-08-20T02:04:22.558Z,16.81
2022-08-20T02:06:56.170Z,16.84
2022-08-20T02:09:30.383Z,16.91
2022-08-20T02:11:57.885Z,16.98
2022-08-20T02:14:27.786Z,17.02
2022-08-20T02:16:54.850Z,17.06
2022-08-20T02:19:45.287Z,17.12
2022-08-20T02:22:24.314Z,17.09
2022-08-20T02:24:51.620Z,17.17
2022-08-20T02:27:18.930Z,17.23
2022-08-20T02:29:46.921Z,17.17
2022-08-20T02:32:32.161Z,17.09
2022-08-20T02:35:03.520Z,17.26
2022-08-20T02:37:30.742Z,17.35
2022-08-20T02:39:57.341Z,17.44
2022-08-20T02:42:24.200Z,17.42
2022-08-20T02:44:50.587Z,17.17
2022-08-20T02:47:17.242Z,17.11
2022-08-20T02:49:43.763Z,17.28
2022-08-20T02:52:10.514Z,17.23
2022-08-20T02:54:38.233Z,17.22
2022-08-20T02:57:05.244Z,17.28
2022-08-20T02:59:32.218Z,17.18
2022-08-20T03:02:00.900Z,17.27
2022-08-20T03:04:29.623Z,17.25
2022-08-20T03:06:56.710Z,17.23
2022-08-20T03:09:23.360Z,17.17
2022-08-20T03:11:49.901Z,17.17
2022-08-20T03:14:16.304Z,17.22
2022-08-20T03:16:43.604Z,17.19
2022-08-20T03:19:10.027Z,17.27
2022-08-20T03:21:37.013Z,17.13
2022-08-20T03:24:04.117Z,17.07
2022-08-20T03:26:31.169Z,17.09
2022-08-20T03:28:57.708Z,17.14
2022-08-20T03:31:24.396Z,17.06
2022-08-20T03:33:53.418Z,17.08
2022-08-20T03:36:28.296Z,17.14
2022-08-20T03:39:00.461Z,17.11
2022-08-20T03:41:27.369Z,17.12
2022-08-20T03:43:55.310Z,17.11
2022-08-20T03:46:22.068Z,17.02
2022-08-20T03:49:00.264Z,17.16
2022-08-20T03:51:43.989Z,17.13
2022-08-20T03:54:19.147Z,17.04
2022-08-20T03:56:45.561Z,17.03
2022-08-20T03:59:13.466Z,17.12
2022-08-20T04:01:46.395Z,17.08
2022-08-20T04:04:14.639Z,17.04
2022-08-20T04:06:42.662Z,17.04
2022-08-20T04:09:12.529Z,16.97
2022-08-20T04:11:40.510Z,17.01
2022-08-20T04:14:07.425Z,16.99
2022-08-20T04:16:36.202Z,17.00
2022-08-20T04:19:04.317Z,16.96
2022-08-20T04:21:33.521Z,16.91
2022-08-20T04:24:01.399Z,16.92
2022-08-20T04:26:28.017Z,16.94
2022-08-20T04:28:55.626Z,16.90
2022-08-20T04:31:25.668Z,17.02
2022-08-20T04:33:56.353Z,17.02
2022-08-20T04:36:24.864Z,17.02
2022-08-20T04:38:51.310Z,17.09
2022-08-20T04:41:22.676Z,17.05
2022-08-20T04:43:51.979Z,17.10
2022-08-20T04:46:19.617Z,17.05
2022-08-20T04:48:48.760Z,17.02
2022-08-20T04:51:16.886Z,17.05
2022-08-20T04:53:51.918Z,17.24
2022-08-20T04:56:23.328Z,17.21
2022-08-20T04:58:52.381Z,17.35
2022-08-20T05:01:20.693Z,17.26
2022-08-20T05:03:50.015Z,17.23
2022-08-20T05:06:18.369Z,17.41
2022-08-20T05:08:45.353Z,17.27
2022-08-20T05:11:33.578Z,17.38
2022-08-20T05:14:02.152Z,17.52
2022-08-20T05:16:28.616Z,17.69
2022-08-20T05:18:55.353Z,17.69
2022-08-20T05:21:21.940Z,17.76
2022-08-20T05:23:49.423Z,17.98
2022-08-20T05:26:20.394Z,18.11
2022-08-20T05:28:57.977Z,18.23
2022-08-20T05:31:32.560Z,18.27
2022-08-20T05:34:01.272Z,18.42
2022-08-20T05:36:27.880Z,18.38
2022-08-20T05:38:54.657Z,18.54
2022-08-20T05:41:29.125Z,18.61
2022-08-20T05:44:01.240Z,18.91
2022-08-20T05:46:31.052Z,18.90
2022-08-20T05:48:59.817Z,18.85
2022-08-20T05:51:28.439Z,19.09
2022-08-20T05:53:58.260Z,19.26
2022-08-20T05:56:30.991Z,19.27
2022-08-20T05:58:59.838Z,19.35
2022-08-20T06:01:26.670Z,19.42
2022-08-20T06:04:14.412Z,19.49
2022-08-20T06:06:45.610Z,19.68
2022-08-20T06:09:13.292Z,19.81
2022-08-20T06:11:39.701Z,19.86
2022-08-20T06:14:06.143Z,19.95
2022-08-20T06:16:32.676Z,19.89
2022-08-20T06:18:59.100Z,20.00
2022-08-20T06:21:26.410Z,20.15
2022-08-20T06:23:58.104Z,20.17
2022-08-20T06:26:30.382Z,20.07
2022-08-20T06:28:58.249Z,20.23
2022-08-20T06:31:25.170Z,20.28
2022-08-20T06:33:51.728Z,20.29
2022-08-20T06:36:18.896Z,20.41
2022-08-20T06:38:46.306Z,20.58
2022-08-20T06:41:12.891Z,20.60
2022-08-20T06:43:39.526Z,20.73
2022-08-20T06:46:06.930Z,20.65
2022-08-20T06:48:34.638Z,20.78
2022-08-20T06:51:01.559Z,20.85
2022-08-20T06:53:29.187Z,21.00
2022-08-20T06:55:59.261Z,21.04
2022-08-20T06:58:32.722Z,21.42
2022-08-20T07:01:10.570Z,21.42
2022-08-20T07:03:55.706Z,21.48
2022-08-20T07:06:26.060Z,20.87
2022-08-20T07:08:53.509Z,21.06
2022-08-20T07:11:23.748Z,21.46
2022-08-20T07:13:58.003Z,21.46
2022-08-20T07:16:24.610Z,21.33
2022-08-20T07:18:51.294Z,21.44
2022-08-20T07:21:18.004Z,21.35
2022-08-20T07:23:44.556Z,21.51
2022-08-20T07:26:11.042Z,21.59
2022-08-20T07:28:37.827Z,21.52
2022-08-20T07:31:23.436Z,21.50
2022-08-20T07:33:50.900Z,21.50
2022-08-20T07:36:20.313Z,21.65
2022-08-20T07:38:52.059Z,21.62
2022-08-20T07:41:19.995Z,21.58
2022-08-20T07:43:47.916Z,21.65
2022-08-20T07:46:17.649Z,21.61
2022-08-20T07:48:49.912Z,21.63
2022-08-20T07:51:19.893Z,21.68
2022-08-20T07:53:47.816Z,21.59
2022-08-20T07:56:17.332Z,21.60
2022-08-20T07:58:49.667Z,21.68
2022-08-20T08:01:22.274Z,21.76
2022-08-20T08:03:50.065Z,21.70
2022-08-20T08:06:29.895Z,21.64
2022-08-20T08:09:18.170Z,21.34
2022-08-20T08:11:52.523Z,21.78
2022-08-20T08:14:24.734Z,21.54
2022-08-20T08:16:54.319Z,21.79
2022-08-20T08:19:21.298Z,21.89
2022-08-20T08:21:49.485Z,21.83
2022-08-20T08:24:21.712Z,21.97
2022-08-20T08:26:50.206Z,22.13
2022-08-20T08:29:17.148Z,22.21
2022-08-20T08:31:43.587Z,22.25
2022-08-20T08:34:10.058Z,22.35
2022-08-20T08:36:36.469Z,22.28
2022-08-20T08:39:03.838Z,22.24
2022-08-20T08:41:44.919Z,21.96
2022-08-20T08:44:21.693Z,22.04
2022-08-20T08:46:49.605Z,22.24
2022-08-20T08:49:22.500Z,22.03
2022-08-20T08:51:56.124Z,22.47
2022-08-20T08:54:27.562Z,22.08
2022-08-20T08:56:54.357Z,22.21
2022-08-20T08:59:22.369Z,22.51
2022-08-20T09:01:57.583Z,22.75
2022-08-20T09:04:37.953Z,22.46
2022-08-20T09:07:10.916Z,22.73
2022-08-20T09:09:41.122Z,22.67
2022-08-20T09:12:11.040Z,22.53
2022-08-20T09:14:38.133Z,22.65
2022-08-20T09:17:05.412Z,22.74
2022-08-20T09:19:32.086Z,22.56
2022-08-20T09:21:59.529Z,23.04
2022-08-20T09:24:25.956Z,23.30
2022-08-20T09:26:52.671Z,23.18
2022-08-20T09:29:19.135Z,22.94
2022-08-20T09:31:46.447Z,22.84
2022-08-20T09:34:14.587Z,22.69
2022-08-20T09:36:41.051Z,22.88
2022-08-20T09:39:07.458Z,22.91
2022-08-20T09:41:34.676Z,23.01
2022-08-20T09:44:01.600Z,22.69
2022-08-20T09:46:31.535Z,22.69
2022-08-20T09:48:59.675Z,23.08
2022-08-20T09:51:26.167Z,22.58
2022-08-20T09:53:52.917Z,22.80
2022-08-20T09:56:20.655Z,22.70
2022-08-20T09:58:54.938Z,22.54
2022-08-20T10:01:22.560Z,22.82
2022-08-20T10:03:49.825Z,22.51
2022-08-20T10:06:19.589Z,21.97
2022-08-20T10:08:49.346Z,21.97
2022-08-20T10:11:18.556Z,22.01
2022-08-20T10:13:45.699Z,22.21
2022-08-20T10:16:13.353Z,22.92
2022-08-20T10:18:39.810Z,23.02
2022-08-20T10:21:11.999Z,22.95
2022-08-20T10:23:38.776Z,22.58
2022-08-20T10:26:07.534Z,23.15
2022-08-20T10:28:34.543Z,23.37
2022-08-20T10:31:01.260Z,24.25
2022-08-20T10:33:31.114Z,22.94
2022-08-20T10:36:00.196Z,23.97
2022-08-20T10:38:28.067Z,24.19
2022-08-20T10:40:56.133Z,25.27
2022-08-20T10:43:23.795Z,25.00
2022-08-20T10:45:51.034Z,24.78
2022-08-20T10:48:21.547Z,24.76
2022-08-20T10:50:49.760Z,25.25
2022-08-20T10:53:16.883Z,26.77
2022-08-20T10:55:43.609Z,26.15
2022-08-20T10:58:11.467Z,27.09
2022-08-20T11:00:39.900Z,27.42
2022-08-20T11:03:07.035Z,27.00
2022-08-20T11:05:33.896Z,26.30
2022-08-20T11:08:03.761Z,26.73
2022-08-20T11:10:33.892Z,27.07
2022-08-20T11:13:04.843Z,26.76
2022-08-20T11:15:37.221Z,26.72
2022-08-20T11:18:05.292Z,25.92
2022-08-20T11:20:32.234Z,26.17
2022-08-20T11:22:59.180Z,25.52
2022-08-20T11:25:28.376Z,27.79
2022-08-20T11:27:56.857Z,26.39
2022-08-20T11:30:35.868Z,26.66
2022-08-20T11:33:04.773Z,27.24
2022-08-20T11:35:48.425Z,28.45
2022-08-20T11:38:18.180Z,26.80
2022-08-20T11:40:46.712Z,26.71
2022-08-20T11:43:15.084Z,28.72
2022-08-20T11:45:44.299Z,27.87
2022-08-20T11:48:10.881Z,29.44
2022-08-20T11:50:37.315Z,30.36
2022-08-20T11:53:03.844Z,29.69
2022-08-20T11:55:31.247Z,28.01
2022-08-20T11:58:00.427Z,28.55
2022-08-20T12:00:33.949Z,29.65
2022-08-20T12:03:04.821Z,30.61
2022-08-20T12:05:31.674Z,31.96
2022-08-20T12:08:01.084Z,29.49
2022-08-20T12:10:28.345Z,30.37
2022-08-20T12:12:55.863Z,30.38
2022-08-20T12:15:23.677Z,32.07
2022-08-20T12:17:50.111Z,30.89
2022-08-20T12:20:16.566Z,29.47
2022-08-20T12:22:44.567Z,30.89
2022-08-20T12:25:12.411Z,30.87
2022-08-20T12:27:39.134Z,30.45
2022-08-20T12:30:12.927Z,30.51
2022-08-20T12:32:40.005Z,32.05
2022-08-20T12:35:07.694Z,32.42
2022-08-20T12:37:34.886Z,31.82
2022-08-20T12:40:05.208Z,30.51
2022-08-20T12:42:31.801Z,31.82
2022-08-20T12:44:59.220Z,30.05
2022-08-20T12:47:35.350Z,29.70
2022-08-20T12:50:14.811Z,30.04
2022-08-20T12:52:42.022Z,31.90
2022-08-20T12:55:14.176Z,30.63
2022-08-20T12:57:44.031Z,33.02
2022-08-20T13:00:24.364Z,33.07
2022-08-20T13:02:53.410Z,33.16
2022-08-20T13:05:21.256Z,34.61
2022-08-20T13:07:48.711Z,34.80
2022-08-20T13:10:21.140Z,32.80
2022-08-20T13:12:47.975Z,31.79
2022-08-20T13:15:14.876Z,31.45
2022-08-20T13:17:44.671Z,31.26
2022-08-20T13:20:16.468Z,30.00
2022-08-20T13:22:44.430Z,30.09
2022-08-20T13:25:12.883Z,29.75
2022-08-20T13:27:44.305Z,29.80
2022-08-20T13:30:18.039Z,29.53
2022-08-20T13:32:44.932Z,29.56
2022-08-20T13:35:13.151Z,29.62
2022-08-20T13:37:41.213Z,29.23
2022-08-20T13:40:09.126Z,28.81
2022-08-20T13:42:36.156Z,28.35
2022-08-20T13:45:04.724Z,28.48
2022-08-20T13:47:34.646Z,28.37
2022-08-20T13:50:08.363Z,28.01
2022-08-20T13:52:35.408Z,28.12
2022-08-20T13:55:03.097Z,28.38
2022-08-20T13:57:33.883Z,27.98
2022-08-20T14:00:02.292Z,27.16
2022-08-20T14:02:29.938Z,26.88
2022-08-20T14:04:56.426Z,27.31
2022-08-20T14:07:30.143Z,27.28
2022-08-20T14:10:01.402Z,27.20
2022-08-20T14:12:28.858Z,26.88
2022-08-20T14:14:57.703Z,26.90
2022-08-20T14:17:27.916Z,26.68
2022-08-20T14:20:05.200Z,26.82
2022-08-20T14:22:34.581Z,26.76
2022-08-20T14:25:03.768Z,26.89
2022-08-20T14:27:32.705Z,26.89
2022-08-20T14:29:59.628Z,26.44
2022-08-20T14:32:26.882Z,26.39
2022-08-20T14:34:54.534Z,26.89
2022-08-20T14:37:24.307Z,26.96
2022-08-20T14:39:59.154Z,26.91
2022-08-20T14:42:28.168Z,26.87
2022-08-20T14:44:56.227Z,26.73
2022-08-20T14:47:25.971Z,26.46
2022-08-20T14:49:56.866Z,25.96
2022-08-20T14:52:31.326Z,25.79
2022-08-20T14:54:58.920Z,25.94
2022-08-20T14:57:25.329Z,25.98
2022-08-20T14:59:55.564Z,25.91
2022-08-20T15:02:22.840Z,25.91
2022-08-20T15:04:54.175Z,25.85
2022-08-20T15:07:31.088Z,25.81
2022-08-20T15:09:58.527Z,25.31
2022-08-20T15:12:24.936Z,25.30
2022-08-20T15:14:51.379Z,25.61
2022-08-20T15:17:24.942Z,25.46
2022-08-20T15:19:51.634Z,25.28
2022-08-20T15:22:19.345Z,25.35
2022-08-20T15:24:46.327Z,25.17
2022-08-20T15:27:23.534Z,25.15
2022-08-20T15:29:52.177Z,25.21
2022-08-20T15:32:19.670Z,25.27
2022-08-20T15:34:46.966Z,24.82
2022-08-20T15:37:22.229Z,25.08
2022-08-20T15:39:50.129Z,25.14
2022-08-20T15:42:18.317Z,25.09
2022-08-20T15:44:46.034Z,24.93
2022-08-20T15:47:21.820Z,25.13
2022-08-20T15:49:50.829Z,24.99
2022-08-20T15:52:17.833Z,24.94
2022-08-20T15:54:45.475Z,24.89
2022-08-20T15:57:25.847Z,24.66
2022-08-20T16:00:32.427Z,24.72
2022-08-20T16:03:28.714Z,24.94
2022-08-20T16:06:06.389Z,24.93
2022-08-20T16:09:16.428Z,25.08
2022-08-20T16:12:12.105Z,24.82
2022-08-20T16:14:41.541Z,24.81
2022-08-20T16:17:18.886Z,25.16
2022-08-20T16:20:02.110Z,24.66
2022-08-20T16:22:30.984Z,24.37
2022-08-20T16:24:58.047Z,23.68
2022-08-20T16:27:49.539Z,24.33
2022-08-20T16:30:45.504Z,24.12
2022-08-20T16:33:22.489Z,24.17
2022-08-20T16:35:57.188Z,24.54
2022-08-20T16:38:54.806Z,23.74
2022-08-20T16:41:44.253Z,23.47
2022-08-20T16:44:35.344Z,23.51
2022-08-20T16:47:11.673Z,23.34
2022-08-20T16:49:58.673Z,23.34
2022-08-20T16:52:26.562Z,23.27
2022-08-20T16:54:55.166Z,23.06
2022-08-20T16:57:22.031Z,23.12
2022-08-20T17:00:19.234Z,23.39
2022-08-20T17:02:52.505Z,23.22
2022-08-20T17:05:20.287Z,23.43
2022-08-20T17:07:52.992Z,23.18
2022-08-20T17:10:31.237Z,23.21
2022-08-20T17:13:06.099Z,23.21
2022-08-20T17:15:35.237Z,22.98
2022-08-20T17:18:39.074Z,23.29
2022-08-20T17:21:11.986Z,23.11
2022-08-20T17:23:55.645Z,22.92
2022-08-20T17:26:29.957Z,22.85
2022-08-20T17:28:58.285Z,22.78
2022-08-20T17:31:50.615Z,22.97
2022-08-20T17:34:31.908Z,22.86
2022-08-20T17:37:21.647Z,22.80
2022-08-20T17:39:54.665Z,22.72
2022-08-20T17:42:28.667Z,22.69
2022-08-20T17:45:13.219Z,22.63
2022-08-20T17:47:45.592Z,22.65
2022-08-20T17:50:30.856Z,22.54
2022-08-20T17:53:04.670Z,22.50
2022-08-20T17:55:33.409Z,22.21
2022-08-20T17:58:03.518Z,22.32
2022-08-20T18:00:31.672Z,22.42
2022-08-20T18:03:11.522Z,22.31
2022-08-20T18:05:40.031Z,22.07
2022-08-20T18:08:14.845Z,22.01
2022-08-20T18:11:07.501Z,21.84
2022-08-20T18:13:48.365Z,21.76
2022-08-20T18:16:25.557Z,21.56
2022-08-20T18:19:16.441Z,21.61
2022-08-20T18:22:10.926Z,21.74
2022-08-20T18:24:49.017Z,21.46
2022-08-20T18:27:20.895Z,21.34
2022-08-20T18:29:56.858Z,21.27
2022-08-20T18:32:32.233Z,21.26
2022-08-20T18:35:07.866Z,21.20
2022-08-20T18:37:35.501Z,21.27
2022-08-20T18:40:21.857Z,21.30
2022-08-20T18:42:50.503Z,21.18
2022-08-20T18:45:36.774Z,21.28
2022-08-20T18:48:05.789Z,21.31
2022-08-20T18:50:45.023Z,21.07
2022-08-20T18:53:15.283Z,20.91
2022-08-20T18:56:02.239Z,20.77
2022-08-20T18:58:32.686Z,20.53
2022-08-20T19:01:03.339Z,20.34
2022-08-20T19:03:35.990Z,20.15
2022-08-20T19:06:29.228Z,20.03
2022-08-20T19:09:15.098Z,19.77
2022-08-20T19:11:51.811Z,19.85
2022-08-20T19:14:39.824Z,19.88
2022-08-20T19:17:33.159Z,19.82
2022-08-20T19:20:08.871Z,19.69
2022-08-20T19:22:35.947Z,19.44
2022-08-20T19:25:02.367Z,19.36
2022-08-20T19:27:29.650Z,19.30
2022-08-20T19:29:57.654Z,19.25
2022-08-20T19:32:32.728Z,19.18
2022-08-20T19:35:03.628Z,19.16
2022-08-20T19:37:51.671Z,19.16
2022-08-20T19:40:22.843Z,19.05
2022-08-20T19:42:52.875Z,19.03
2022-08-20T19:45:28.796Z,19.05
2022-08-20T19:48:12.520Z,18.87
2022-08-20T19:50:54.780Z,18.78
2022-08-20T19:53:31.136Z,18.67
2022-08-20T19:56:09.856Z,18.61
2022-08-20T19:58:37.355Z,18.65
2022-08-20T20:01:10.928Z,18.61
2022-08-20T20:03:37.963Z,18.55
2022-08-20T20:06:20.423Z,18.51
2022-08-20T20:08:58.896Z,18.43
2022-08-20T20:11:32.759Z,18.48
2022-08-20T20:14:05.883Z,18.41
2022-08-20T20:16:33.582Z,18.37
2022-08-20T20:19:24.777Z,18.39
2022-08-20T20:21:49.664Z,18.37
2022-08-20T20:24:31.142Z,18.33
2022-08-20T20:26:59.170Z,18.25
2022-08-20T20:29:35.120Z,18.20
2022-08-20T20:32:14.797Z,18.05
2022-08-20T20:34:55.727Z,18.12
2022-08-20T20:37:50.869Z,17.96
2022-08-20T20:40:29.392Z,18.04
2022-08-20T20:43:08.750Z,17.91
2022-08-20T20:45:40.137Z,17.90
2022-08-20T20:48:25.125Z,17.93
2022-08-20T20:50:52.730Z,17.92
2022-08-20T20:53:51.131Z,17.96
2022-08-20T20:56:31.180Z,18.00
2022-08-20T20:59:00.275Z,18.15
2022-08-20T21:01:49.605Z,18.14
2022-08-20T21:04:19.963Z,18.37
2022-08-20T21:06:50.833Z,18.30
2022-08-20T21:09:17.884Z,18.35
2022-08-20T21:11:48.063Z,18.34
2022-08-20T21:14:15.215Z,18.29
2022-08-20T21:16:42.174Z,18.31
2022-08-20T21:19:10.107Z,18.25
2022-08-20T21:21:38.440Z,18.24
2022-08-20T21:24:05.273Z,18.35
2022-08-20T21:26:32.197Z,18.30
2022-08-20T21:28:59.196Z,18.32
2022-08-20T21:31:31.742Z,18.38
2022-08-20T21:33:58.229Z,18.36
2022-08-20T21:36:24.703Z,18.22
2022-08-20T21:38:51.380Z,18.27
2022-08-20T21:41:18.016Z,18.24
2022-08-20T21:43:44.411Z,18.37
2022-08-20T21:46:15.996Z,18.48
2022-08-20T21:48:46.344Z,18.53
2022-08-20T21:51:14.833Z,18.64
2022-08-20T21:53:42.599Z,18.68
2022-08-20T21:56:11.950Z,18.79
2022-08-20T21:58:39.305Z,18.74
2022-08-20T22:01:06.812Z,18.77
2022-08-20T22:03:38.681Z,18.75
2022-08-20T22:06:08.771Z,18.72
2022-08-20T22:08:35.476Z,18.78
2022-08-20T22:11:02.731Z,18.74
2022-08-20T22:13:32.726Z,18.39
2022-08-20T22:16:04.733Z,18.31
2022-08-20T22:18:31.160Z,18.20
2022-08-20T22:20:57.640Z,18.24
2022-08-20T22:23:24.909Z,18.30
2022-08-20T22:25:52.409Z,18.32
2022-08-20T22:28:19.662Z,18.30
2022-08-20T22:30:46.258Z,18.40
2022-08-20T22:33:16.745Z,18.27
2022-08-20T22:35:48.569Z,17.99
2022-08-20T22:38:15.854Z,17.91
2022-08-20T22:40:42.999Z,17.83
2022-08-20T22:43:09.706Z,17.82
2022-08-20T22:45:37.364Z,17.82
2022-08-20T22:48:06.872Z,17.66
2022-08-20T22:50:33.536Z,17.57
2022-08-20T22:53:02.077Z,17.58
2022-08-20T22:55:29.184Z,17.49
2022-08-20T22:57:55.652Z,17.52
2022-08-20T23:00:24.680Z,17.40
2022-08-20T23:02:56.996Z,17.32
2022-08-20T23:05:27.062Z,17.16
2022-08-20T23:07:56.015Z,17.14
2022-08-20T23:10:25.647Z,17.14
2022-08-20T23:12:52.348Z,17.00
2022-08-20T23:15:19.444Z,16.98
2022-08-20T23:17:46.903Z,16.95
2022-08-20T23:20:16.900Z,16.90
2022-08-20T23:22:44.015Z,16.89
2022-08-20T23:25:11.659Z,16.86
2022-08-20T23:27:44.645Z,16.80
2022-08-20T23:30:11.699Z,16.77
2022-08-20T23:32:38.551Z,16.63
2022-08-20T23:35:07.134Z,16.47
2022-08-20T23:37:42.357Z,16.32
2022-08-20T23:40:10.363Z,16.41
2022-08-20T23:42:36.851Z,16.44
2022-08-20T23:45:05.064Z,16.44
2022-08-20T23:47:35.472Z,16.45
2022-08-20T23:50:02.720Z,16.48
2022-08-20T23:52:31.131Z,16.57
2022-08-20T23:54:58.087Z,16.54
2022-08-20T23:57:24.648Z,16.46
2022-08-20T23:59:52.966Z,16.38
